Startpagina
METAR-TAF:

METAR-TAF

Vliegvelden :

Bandaranaike International Airport

Colombo, Sri Lanka

breedte: 07-10N, lengte: 079-53E, hoogte: 8 m

Actueel weer

Dit bericht is 50 minuten geleden gemaakt, om 23:10 UTC
Wind 8 kt uit het noordoosten
Temperatuur 24°C
Vochtigheid 89%
Druk 1010 hPa
Zicht: 9000 m
Onbewolkt

METAR: VCBI 192310Z 04008KT 9000 SKC 24/22 Q1010 NOSIG

Tijdstip: 05:30 (00:00 UTC)

Verwachting

Dit bericht is 1 uur en het 0 minuten geleden gemaakt, om 23:00 UTC
Verwachting geldig van 20 om 00 UTC tot 21 om 06 UTC
Wind 8 kt uit het oostnoordoosten
Zicht 10 km of meer
Weinig wolken op 1800 ft
Tijdelijke
van 20 om 00 UTC tot 20 om 02 UTC
Zicht: 7000 m
Wijzigt naar
van 20 om 05 UTC tot 20 om 07 UTC
Wind 6 kt uit variabele richting
Wijzigt naar
van 20 om 12 UTC tot 20 om 14 UTC
Wind 8 kt uit het noordoosten

TAF: VCBI 192300Z 2000/2106 06008KT 9999 FEW018 TX34/2008Z TN24/2100Z TEMPO 2000/2002 7000 BECMG 2005/2007 VRB06KT BECMG 2012/2014 05008KT

Waarnemingen en weersverwachtingen van meer dan 4000 vliegvelden (METAR en TAF).

De beschikbare stations zijn de gele en rode punten op de kaart.

Ga met uw muis naar het station om de naam te zien.

Klik dan om waarnemingen en weersverwachtingen te zien.

kaart wijzigen: klik op de groene knoppen met een zwart kruis om in te zoomen, op de groene knop met een streepje om uit te zoomen of op de groene pijlen voor aangrenzende kaarten.


METAR-TAF: